Time;durP1;ratioP1;P1;durP2;ratioP2;P2;SDS_P1;SDS_P2;PMS_P1;PMS_P2;Temp;Humidity;BMP_temperature;BMP_pressure;BME280_temperature;BME280_humidity;BME280_pressure;Samples;Min_cycle;Max_cycle;Signal;HPM_P1;HPM_P2
2023/06/03 07:24:15;;;;;;;;;;;15.70;51.00;;;;;;5471447;24;20407;-70
2023/06/03 07:26:41;;;;;;;7.53;0.80;;;15.50;51.90;;;;;;4789123;29;20377;-72
2023/06/03 07:29:06;;;;;;;3.13;0.83;;;15.30;52.10;;;;;;4789655;29;20042;-71
2023/06/03 07:31:35;;;;;;;3.50;1.00;;;15.20;52.30;;;;;;4796391;29;20050;-72
2023/06/03 07:34:02;;;;;;;6.03;0.80;;;15.10;52.60;;;;;;4793285;29;20059;-72
2023/06/03 07:36:28;;;;;;;7.47;0.90;;;15.00;52.70;;;;;;4797265;29;20295;-70
2023/06/03 07:39:08;;;;;;;2.60;0.67;;;15.00;53.70;;;;;;4798323;29;20288;-70
2023/06/03 07:41:38;;;;;;;6.27;1.50;;;15.10;53.60;;;;;;4789066;29;20050;-70
2023/06/03 07:44:10;;;;;;;2.37;0.53;;;15.20;54.60;;;;;;4791361;29;20357;-71
2023/06/03 07:46:37;;;;;;;2.00;0.60;;;15.50;54.40;;;;;;4796371;29;20300;-71
2023/06/03 07:49:04;;;;;;;1.73;0.50;;;15.80;54.50;;;;;;4777989;29;20782;-71
2023/06/03 07:51:29;;;;;;;1.47;0.60;;;16.20;54.90;;;;;;4798987;29;20814;-72
2023/06/03 07:53:56;;;;;;;0.80;0.40;;;16.50;53.00;;;;;;4790846;29;20316;-71
2023/06/03 07:56:21;;;;;;;1.67;0.60;;;16.80;51.80;;;;;;4792607;29;20035;-71
2023/06/03 07:58:47;;;;;;;3.47;0.50;;;17.00;51.70;;;;;;4793730;29;20345;-71
2023/06/03 08:01:16;;;;;;;2.50;0.60;;;17.20;50.90;;;;;;4799737;29;20126;-71
2023/06/03 08:03:42;;;;;;;1.90;0.60;;;17.30;48.10;;;;;;4799212;29;20107;-72
2023/06/03 08:06:08;;;;;;;1.47;0.57;;;17.30;48.90;;;;;;4806660;29;20808;-72
2023/06/03 08:08:34;;;;;;;2.47;0.70;;;17.40;49.00;;;;;;4817959;29;20050;-71
2023/06/03 08:11:03;;;;;;;1.20;0.60;;;17.40;49.50;;;;;;4803677;29;20347;-71
2023/06/03 08:13:29;;;;;;;8.40;1.17;;;17.50;47.80;;;;;;4787774;29;20284;-71
2023/06/03 08:15:55;;;;;;;2.27;0.60;;;17.60;48.40;;;;;;4796220;29;20284;-71
2023/06/03 08:18:40;;;;;;;1.93;0.60;;;17.70;48.40;;;;;;4778397;29;20098;-71
2023/06/03 08:21:06;;;;;;;2.10;0.40;;;17.80;48.90;;;;;;4795395;29;20375;-71
2023/06/03 08:23:33;;;;;;;3.27;0.80;;;18.00;48.50;;;;;;4788663;29;20133;-72
2023/06/03 08:26:00;;;;;;;1.83;0.50;;;18.20;48.30;;;;;;4788229;29;20054;-72
2023/06/03 08:28:26;;;;;;;1.37;0.40;;;18.30;47.80;;;;;;4788682;29;20435;-71
2023/06/03 08:30:53;;;;;;;1.30;0.53;;;18.40;48.00;;;;;;4788687;29;20363;-71
2023/06/03 08:33:19;;;;;;;3.27;0.80;;;18.50;48.00;;;;;;4769590;29;20308;-73
2023/06/03 08:35:45;;;;;;;5.30;0.67;;;18.70;47.20;;;;;;4783691;29;20303;-72
2023/06/03 08:38:11;;;;;;;2.60;0.50;;;18.80;46.40;;;;;;4785735;29;20558;-72
2023/06/03 08:40:45;;;;;;;1.03;0.53;;;18.80;46.10;;;;;;4782651;29;20315;-72
2023/06/03 08:43:11;;;;;;;2.03;0.70;;;18.90;43.50;;;;;;4787005;29;20139;-71
2023/06/03 08:45:55;;;;;;;1.30;0.67;;;18.80;45.30;;;;;;4789477;29;20781;-71
2023/06/03 08:48:35;;;;;;;1.80;0.77;;;18.90;43.80;;;;;;4776390;29;20351;-72
2023/06/03 08:51:04;;;;;;;1.50;0.50;;;18.90;44.50;;;;;;4791629;29;20311;-72
2023/06/03 08:53:47;;;;;;;1.03;0.50;;;19.00;46.40;;;;;;4790739;29;20332;-71
2023/06/03 08:56:16;;;;;;;3.83;0.63;;;19.10;45.70;;;;;;4785454;29;20375;-73
2023/06/03 08:58:46;;;;;;;1.40;0.47;;;19.20;44.70;;;;;;4791493;29;20391;-71
2023/06/03 09:01:14;;;;;;;3.07;0.50;;;19.40;44.40;;;;;;4777535;29;20288;-72
2023/06/03 09:03:42;;;;;;;4.40;1.20;;;19.40;43.50;;;;;;4790799;29;20292;-71
2023/06/03 09:06:09;;;;;;;2.30;0.57;;;19.40;42.30;;;;;;4775430;29;20296;-71
2023/06/03 09:08:38;;;;;;;1.30;0.60;;;19.40;42.70;;;;;;4778975;29;20301;-71
2023/06/03 09:11:07;;;;;;;1.13;0.40;;;19.40;43.60;;;;;;4786349;29;20414;-71
2023/06/03 09:13:34;;;;;;;1.47;0.50;;;19.60;42.30;;;;;;4786023;29;20293;-71
2023/06/03 09:16:01;;;;;;;2.87;0.60;;;19.60;43.20;;;;;;4786318;29;20288;-71
2023/06/03 09:18:27;;;;;;;2.17;0.50;;;19.60;42.00;;;;;;4770138;29;20303;-71
2023/06/03 09:20:53;;;;;;;2.13;0.60;;;19.60;42.00;;;;;;4798377;29;20777;-71
2023/06/03 09:23:20;;;;;;;3.77;0.60;;;19.60;41.10;;;;;;4771281;29;20296;-71
2023/06/03 09:25:46;;;;;;;4.27;0.40;;;19.70;41.40;;;;;;4773499;30;20087;-71
2023/06/03 09:28:13;;;;;;;2.33;0.50;;;19.80;40.40;;;;;;4767960;30;20390;-71
2023/06/03 09:30:39;;;;;;;2.10;0.43;;;19.80;40.60;;;;;;4766378;30;20047;-71
2023/06/03 09:33:05;;;;;;;2.47;0.40;;;19.80;39.70;;;;;;4771045;29;20395;-71
2023/06/03 09:35:31;;;;;;;2.33;0.60;;;19.90;40.50;;;;;;4771802;30;20854;-71
2023/06/03 09:38:04;;;;;;;2.93;0.57;;;19.90;40.00;;;;;;4753525;30;20057;-71
2023/06/03 09:40:31;;;;;;;3.53;0.50;;;20.00;40.30;;;;;;4757870;30;20051;-71
2023/06/03 09:42:57;;;;;;;3.40;0.53;;;20.10;40.30;;;;;;4765199;30;20318;-71
2023/06/03 09:45:29;;;;;;;2.07;0.30;;;20.20;39.30;;;;;;4754499;30;20997;-71
2023/06/03 09:47:56;;;;;;;0.90;0.40;;;20.30;39.20;;;;;;4767034;30;20054;-71
2023/06/03 09:50:23;;;;;;;3.13;0.50;;;20.30;38.20;;;;;;4749470;30;20316;-72
2023/06/03 09:52:49;;;;;;;3.93;0.50;;;20.30;37.80;;;;;;4767333;30;20312;-71
2023/06/03 09:55:17;;;;;;;4.07;0.50;;;20.40;39.40;;;;;;4767714;30;20285;-71
2023/06/03 09:58:10;;;;;;;1.10;0.20;;;20.40;36.80;;;;;;4767398;30;20050;-71
2023/06/03 10:00:49;;;;;;;1.73;0.40;;;20.50;36.30;;;;;;4763721;30;20879;-71
2023/06/03 10:03:18;;;;;;;2.27;0.40;;;20.50;38.40;;;;;;4780562;30;20285;-71
2023/06/03 10:05:44;;;;;;;2.43;0.60;;;20.50;36.50;;;;;;4767408;30;20305;-71
2023/06/03 10:08:10;;;;;;;1.63;0.50;;;20.50;36.50;;;;;;4767217;29;20300;-72
2023/06/03 10:10:59;;;;;;;1.20;0.40;;;20.50;37.40;;;;;;4767138;30;20351;-71
2023/06/03 10:13:25;;;;;;;2.33;0.40;;;20.60;37.00;;;;;;4756590;30;20117;-71
2023/06/03 10:15:52;;;;;;;3.80;0.40;;;20.60;37.40;;;;;;4771127;30;20047;-71
2023/06/03 10:18:33;;;;;;;1.00;0.43;;;20.60;37.20;;;;;;4770998;30;20128;-71
2023/06/03 10:21:04;;;;;;;2.13;0.40;;;20.70;36.60;;;;;;4765345;30;20040;-71
2023/06/03 10:23:30;;;;;;;3.67;0.50;;;20.80;36.00;;;;;;4771476;29;20058;-71
2023/06/03 10:25:56;;;;;;;4.00;0.47;;;20.80;37.30;;;;;;4783068;29;20441;-71
2023/06/03 10:28:23;;;;;;;1.23;0.20;;;20.90;35.90;;;;;;4788915;29;20058;-72
2023/06/03 10:30:50;;;;;;;1.37;0.30;;;20.90;35.10;;;;;;4773990;29;20039;-72
2023/06/03 10:33:18;;;;;;;1.83;0.40;;;20.80;35.00;;;;;;4788553;29;20351;-71
2023/06/03 10:35:46;;;;;;;1.30;0.40;;;20.80;36.20;;;;;;4773538;29;20059;-72
2023/06/03 10:38:14;;;;;;;1.83;0.40;;;20.90;34.90;;;;;;4786817;29;20070;-71
2023/06/03 10:40:41;;;;;;;1.17;0.30;;;20.90;36.30;;;;;;4787193;29;20057;-71
2023/06/03 10:43:09;;;;;;;2.00;0.40;;;21.00;36.70;;;;;;4788499;29;20054;-71
2023/06/03 10:45:35;;;;;;;1.23;0.33;;;21.10;36.70;;;;;;4775738;29;20039;-71
2023/06/03 10:48:10;;;;;;;0.73;0.30;;;21.20;36.90;;;;;;4788150;29;20124;-71
2023/06/03 10:51:09;;;;;;;2.57;0.50;;;21.30;36.70;;;;;;4788335;29;20043;-72
2023/06/03 10:53:58;;;;;;;4.93;0.60;;;21.40;36.70;;;;;;4777273;29;20055;-72
2023/06/03 10:56:42;;;;;;;1.30;0.40;;;21.40;36.50;;;;;;4781380;29;20047;-72
2023/06/03 10:59:13;;;;;;;2.70;0.57;;;21.50;36.30;;;;;;4791345;29;20059;-73
2023/06/03 11:01:58;;;;;;;2.90;0.50;;;21.50;35.40;;;;;;4778207;29;20276;-72
2023/06/03 11:04:25;;;;;;;;;;;21.40;36.00;;;;;;4793588;29;20543;-73
2023/06/03 11:06:51;;;;;;;1.47;0.50;;;21.40;36.60;;;;;;4771646;29;19925;-72
2023/06/03 11:09:34;;;;;;;1.97;0.50;;;21.40;35.70;;;;;;4777379;29;20455;-72
2023/06/03 11:12:13;;;;;;;1.83;0.50;;;21.40;37.60;;;;;;4790833;29;20050;-72
2023/06/03 11:14:50;;;;;;;1.83;0.40;;;21.50;37.50;;;;;;4792631;29;20056;-72
2023/06/03 11:17:18;;;;;;;1.33;0.40;;;21.60;36.90;;;;;;4777173;29;20039;-73
2023/06/03 11:19:44;;;;;;;1.00;0.27;;;21.70;36.50;;;;;;4777430;29;20042;-72
2023/06/03 11:22:31;;;;;;;1.33;0.40;;;21.80;36.10;;;;;;4789440;29;20042;-74
2023/06/03 11:25:00;;;;;;;3.60;0.50;;;21.80;36.40;;;;;;4786015;29;20393;-72
2023/06/03 11:27:28;;;;;;;2.93;0.60;;;21.90;35.20;;;;;;4776838;29;20057;-73
2023/06/03 11:30:04;;;;;;;2.83;0.60;;;21.80;35.90;;;;;;4791549;29;20088;-73
2023/06/03 11:32:30;;;;;;;3.23;0.53;;;21.80;36.80;;;;;;4790794;29;20058;-72
2023/06/03 11:35:25;;;;;;;1.10;0.40;;;21.90;36.90;;;;;;4789608;29;20109;-72
2023/06/03 11:37:52;;;;;;;2.40;0.40;;;22.00;36.20;;;;;;4790440;29;20058;-72
2023/06/03 11:40:20;;;;;;;0.93;0.30;;;22.10;34.70;;;;;;4791689;29;20112;-72
2023/06/03 11:42:53;;;;;;;1.63;0.60;;;22.00;36.10;;;;;;4791394;29;20423;-73
2023/06/03 11:45:24;;;;;;;1.43;0.40;;;22.00;36.00;;;;;;4789615;29;20120;-72
2023/06/03 11:47:55;;;;;;;2.80;0.40;;;22.10;37.00;;;;;;4790153;29;20129;-73
2023/06/03 11:50:23;;;;;;;2.93;0.40;;;22.10;35.40;;;;;;4791024;29;20051;-73
2023/06/03 11:52:49;;;;;;;2.80;0.40;;;22.20;34.80;;;;;;4790843;29;20131;-72
2023/06/03 11:55:32;;;;;;;1.27;0.30;;;22.10;35.80;;;;;;4777342;29;20046;-72
2023/06/03 11:58:11;;;;;;;0.97;0.40;;;22.10;34.40;;;;;;4783653;29;20042;-71
2023/06/03 12:00:37;;;;;;;3.00;0.40;;;22.10;35.20;;;;;;4791753;29;20411;-73
2023/06/03 12:03:03;;;;;;;5.20;0.70;;;22.20;34.10;;;;;;4777575;29;20081;-73
2023/06/03 12:05:29;;;;;;;3.20;0.67;;;22.10;35.50;;;;;;4776039;29;20419;-73
2023/06/03 12:07:57;;;;;;;1.10;0.40;;;22.20;35.50;;;;;;4790813;29;20043;-73
2023/06/03 12:10:23;;;;;;;1.10;0.37;;;22.30;35.80;;;;;;4784395;29;20073;-73
2023/06/03 12:12:51;;;;;;;1.50;0.70;;;22.50;35.70;;;;;;4791576;29;20138;-72
2023/06/03 12:15:17;;;;;;;2.00;0.40;;;22.50;35.10;;;;;;4790588;29;20095;-73
2023/06/03 12:17:43;;;;;;;2.40;0.40;;;22.50;34.70;;;;;;4792363;29;20411;-74
2023/06/03 12:20:10;;;;;;;1.30;0.33;;;22.50;35.40;;;;;;4791766;29;20042;-73
2023/06/03 12:22:35;;;;;;;5.07;0.40;;;22.50;34.70;;;;;;4789966;29;20043;-73
2023/06/03 12:25:01;;;;;;;1.53;0.40;;;22.50;33.60;;;;;;4791093;29;20103;-72
2023/06/03 12:27:29;;;;;;;1.30;0.40;;;22.50;33.90;;;;;;4777842;29;20057;-73
2023/06/03 12:29:57;;;;;;;1.70;0.43;;;22.40;33.50;;;;;;4792833;29;20422;-73
2023/06/03 12:32:25;;;;;;;1.03;0.30;;;22.50;34.30;;;;;;4791826;29;20053;-73
2023/06/03 12:34:51;;;;;;;1.40;0.40;;;22.60;34.50;;;;;;4775400;29;20062;-73
2023/06/03 12:37:33;;;;;;;2.27;0.50;;;22.60;35.00;;;;;;4790807;29;20512;-72
2023/06/03 12:39:59;;;;;;;1.53;0.53;;;22.70;35.60;;;;;;4806837;29;20055;-73
2023/06/03 12:42:37;;;;;;;2.37;0.47;;;22.70;34.20;;;;;;4793627;29;20520;-73
2023/06/03 12:45:03;;;;;;;1.27;0.40;;;22.70;34.90;;;;;;4781128;29;20041;-74
2023/06/03 12:47:29;;;;;;;1.27;0.60;;;22.60;35.20;;;;;;4790567;29;20488;-73
2023/06/03 12:50:09;;;;;;;1.03;0.40;;;22.70;35.10;;;;;;4775532;29;20094;-72
2023/06/03 12:52:38;;;;;;;2.37;0.47;;;22.80;34.70;;;;;;4791357;29;20046;-74
2023/06/03 12:55:14;;;;;;;2.80;0.60;;;22.70;35.20;;;;;;4790464;29;20046;-73
2023/06/03 12:57:48;;;;;;;3.57;0.50;;;22.80;35.40;;;;;;4788945;29;20043;-74
2023/06/03 13:00:21;;;;;;;1.05;0.50;;;22.90;35.10;;;;;;4905041;24;20484;-70
2023/06/03 13:02:54;;;;;;;1.70;0.43;;;22.80;34.50;;;;;;4816375;29;20417;-70
2023/06/03 13:05:21;;;;;;;5.43;0.77;;;22.80;34.50;;;;;;4822316;29;20045;-70
2023/06/03 13:07:47;;;;;;;3.60;0.50;;;22.80;35.10;;;;;;4826415;29;20120;-70
2023/06/03 13:10:14;;;;;;;1.70;0.40;;;22.90;34.40;;;;;;4811202;29;20124;-69
2023/06/03 13:12:42;;;;;;;1.20;0.50;;;22.90;34.90;;;;;;4822694;29;20050;-70
2023/06/03 13:15:09;;;;;;;1.73;0.50;;;23.00;34.50;;;;;;4823925;29;20129;-69
2023/06/03 13:17:36;;;;;;;1.67;0.40;;;22.90;34.60;;;;;;4819172;29;20050;-70
2023/06/03 13:20:06;;;;;;;1.03;0.40;;;22.90;33.40;;;;;;4822576;29;20133;-70
2023/06/03 13:22:33;;;;;;;1.47;0.50;;;22.70;33.00;;;;;;4814954;29;20329;-70
2023/06/03 13:24:59;;;;;;;2.60;0.40;;;22.50;33.40;;;;;;4832978;29;20056;-70
2023/06/03 13:27:24;;;;;;;2.10;0.40;;;22.40;34.00;;;;;;4831562;29;20049;-70
2023/06/03 13:29:51;;;;;;;2.30;0.40;;;22.50;35.00;;;;;;4827964;29;20045;-67
2023/06/03 13:32:18;;;;;;;0.97;0.40;;;22.60;35.40;;;;;;4821388;29;20124;-68
2023/06/03 13:34:44;;;;;;;1.73;0.30;;;22.60;34.90;;;;;;4805704;29;20118;-68
2023/06/03 13:37:10;;;;;;;2.20;0.50;;;22.70;35.00;;;;;;4821736;29;20041;-68
2023/06/03 13:39:36;;;;;;;2.37;0.57;;;22.70;34.40;;;;;;4802997;29;20038;-68
2023/06/03 13:42:02;;;;;;;3.67;0.60;;;22.70;34.80;;;;;;4816435;29;20057;-68
2023/06/03 13:44:29;;;;;;;2.03;0.40;;;22.80;34.40;;;;;;4824040;29;20110;-68
2023/06/03 13:46:57;;;;;;;3.43;0.50;;;22.80;34.90;;;;;;4821957;29;20518;-68
2023/06/03 13:49:22;;;;;;;1.07;0.50;;;22.90;34.90;;;;;;4821418;29;20066;-68
2023/06/03 13:51:48;;;;;;;2.03;0.70;;;23.00;34.10;;;;;;4820296;29;20108;-69
2023/06/03 13:54:14;;;;;;;3.53;0.50;;;23.10;33.80;;;;;;4819839;29;20338;-68
2023/06/03 13:56:40;;;;;;;2.60;0.67;;;23.00;34.60;;;;;;4823966;29;20045;-68
2023/06/03 13:59:06;;;;;;;1.47;0.60;;;23.00;34.50;;;;;;4805589;29;20073;-68
2023/06/03 14:01:32;;;;;;;2.53;0.63;;;23.00;35.10;;;;;;4804917;29;20057;-68
2023/06/03 14:03:58;;;;;;;2.83;0.60;;;23.00;35.30;;;;;;4803775;29;20546;-68
2023/06/03 14:06:23;;;;;;;1.77;0.50;;;23.20;35.60;;;;;;4800603;29;20042;-68
2023/06/03 14:08:49;;;;;;;1.57;0.50;;;23.20;35.20;;;;;;4786803;29;20130;-68
2023/06/03 14:11:16;;;;;;;6.13;0.73;;;23.20;34.00;;;;;;4789244;29;20054;-68
2023/06/03 14:13:42;;;;;;;4.33;0.50;;;23.10;35.20;;;;;;4793520;29;20074;-68
2023/06/03 14:16:08;;;;;;;1.63;0.50;;;23.10;37.20;;;;;;4803004;29;20046;-68
2023/06/03 14:18:34;;;;;;;1.20;0.40;;;23.00;37.50;;;;;;4788492;29;20077;-68
2023/06/03 14:21:00;;;;;;;3.00;0.60;;;23.00;37.70;;;;;;4790015;29;20057;-68
2023/06/03 14:23:25;;;;;;;3.73;0.60;;;23.00;38.00;;;;;;4810761;29;20050;-68
2023/06/03 14:25:51;;;;;;;1.90;0.50;;;23.00;37.70;;;;;;4802093;29;20047;-68
2023/06/03 14:28:17;;;;;;;0.90;0.40;;;23.10;38.00;;;;;;4803233;29;20459;-68
2023/06/03 14:30:43;;;;;;;2.17;0.40;;;23.10;38.00;;;;;;4807984;29;20081;-68
2023/06/03 14:33:09;;;;;;;2.57;0.50;;;23.00;37.40;;;;;;4803826;29;20114;-68
2023/06/03 14:35:35;;;;;;;1.23;0.57;;;22.80;37.00;;;;;;4810588;29;20050;-68
2023/06/03 14:38:00;;;;;;;2.47;0.37;;;22.70;37.30;;;;;;4805825;29;20075;-68
2023/06/03 14:40:26;;;;;;;3.97;0.50;;;22.70;37.50;;;;;;4807042;29;20046;-68
2023/06/03 14:42:52;;;;;;;1.77;0.50;;;22.70;36.40;;;;;;4790226;29;20092;-68
2023/06/03 14:45:17;;;;;;;1.33;0.40;;;22.50;36.70;;;;;;4812496;29;20041;-68
2023/06/03 14:47:43;;;;;;;5.27;0.57;;;22.40;37.30;;;;;;4803714;29;20046;-68
2023/06/03 14:50:09;;;;;;;2.23;0.57;;;22.40;38.40;;;;;;4804089;29;20554;-68
2023/06/03 14:52:36;;;;;;;4.53;1.00;;;22.50;37.50;;;;;;4802565;29;20054;-68
2023/06/03 14:55:02;;;;;;;1.93;0.50;;;22.70;37.80;;;;;;4803554;29;20049;-68
2023/06/03 14:57:27;;;;;;;3.20;0.43;;;22.80;36.90;;;;;;4803650;29;20038;-68
2023/06/03 14:59:53;;;;;;;3.30;0.30;;;22.90;37.20;;;;;;4802635;29;20183;-68
2023/06/03 15:02:19;;;;;;;6.87;0.57;;;22.90;36.90;;;;;;4800918;29;20071;-68
2023/06/03 15:04:45;;;;;;;1.20;0.40;;;23.00;36.60;;;;;;4795059;29;20931;-68
2023/06/03 15:07:12;;;;;;;3.73;0.57;;;22.90;37.40;;;;;;4797795;29;20049;-68
2023/06/03 15:09:37;;;;;;;3.77;0.40;;;23.00;37.40;;;;;;4807195;29;20053;-68
2023/06/03 15:12:03;;;;;;;1.27;0.40;;;23.00;36.80;;;;;;4797443;29;20474;-68
2023/06/03 15:14:29;;;;;;;3.00;0.50;;;23.00;37.00;;;;;;4805091;29;20066;-68
2023/06/03 15:16:57;;;;;;;3.33;0.77;;;22.90;36.20;;;;;;4809438;29;20073;-68
2023/06/03 15:19:23;;;;;;;2.93;0.67;;;22.70;36.30;;;;;;4804906;29;20057;-68
2023/06/03 15:21:49;;;;;;;2.77;0.40;;;22.60;36.60;;;;;;4807349;29;20049;-68
2023/06/03 15:24:15;;;;;;;3.00;0.70;;;22.60;37.00;;;;;;4806867;29;20490;-68
2023/06/03 15:26:41;;;;;;;3.83;0.53;;;22.60;36.90;;;;;;4806004;29;20471;-67
2023/06/03 15:29:07;;;;;;;2.57;0.70;;;22.50;36.20;;;;;;4811231;29;20061;-68
2023/06/03 15:31:35;;;;;;;1.30;0.70;;;22.40;36.40;;;;;;4793969;29;20035;-68
2023/06/03 15:34:01;;;;;;;3.57;0.70;;;22.10;37.20;;;;;;4807296;29;20134;-68
2023/06/03 15:36:27;;;;;;;5.67;0.60;;;22.10;37.70;;;;;;4807575;29;20048;-68
2023/06/03 15:38:52;;;;;;;2.37;0.57;;;22.00;37.70;;;;;;4813994;29;20461;-68
2023/06/03 15:41:18;;;;;;;1.73;0.50;;;22.10;38.10;;;;;;4806829;29;20134;-68
2023/06/03 15:43:44;;;;;;;3.33;0.40;;;22.20;38.70;;;;;;4805704;29;20038;-68
2023/06/03 15:46:10;;;;;;;1.10;0.40;;;22.30;37.70;;;;;;4807763;29;20077;-68
2023/06/03 15:48:35;;;;;;;3.77;0.40;;;22.30;37.60;;;;;;4807037;29;20051;-68
2023/06/03 15:51:01;;;;;;;4.17;0.53;;;22.40;37.60;;;;;;4805670;29;20046;-68
2023/06/03 15:53:27;;;;;;;2.00;0.40;;;22.30;37.60;;;;;;4805289;29;20154;-68
2023/06/03 15:55:53;;;;;;;3.03;0.73;;;22.30;37.60;;;;;;4810279;29;20563;-68
2023/06/03 15:58:18;;;;;;;1.83;0.60;;;22.20;38.00;;;;;;4807931;29;20091;-68
2023/06/03 16:00:44;;;;;;;6.73;0.70;;;22.20;37.50;;;;;;4807906;29;20060;-68
2023/06/03 16:03:10;;;;;;;2.70;0.40;;;22.30;38.00;;;;;;4792269;29;20058;-68
2023/06/03 16:05:36;;;;;;;3.27;0.90;;;22.30;38.50;;;;;;4807302;29;20498;-68
2023/06/03 16:08:02;;;;;;;2.50;0.60;;;22.30;37.60;;;;;;4789265;29;20084;-68
2023/06/03 16:10:28;;;;;;;3.57;0.43;;;22.30;37.70;;;;;;4808029;29;20470;-68
2023/06/03 16:12:53;;;;;;;4.73;0.47;;;22.30;37.70;;;;;;4805257;29;20046;-68
2023/06/03 16:15:20;;;;;;;4.67;0.97;;;22.20;37.90;;;;;;4809557;29;20041;-68
2023/06/03 16:17:45;;;;;;;2.93;0.57;;;22.20;38.20;;;;;;4807699;29;20452;-68
2023/06/03 16:20:12;;;;;;;2.30;0.60;;;22.10;38.30;;;;;;4812416;29;20125;-68
2023/06/03 16:22:40;;;;;;;4.83;0.57;;;22.10;38.20;;;;;;4805150;29;20073;-67
2023/06/03 16:25:07;;;;;;;1.73;0.60;;;22.10;38.20;;;;;;4808734;29;20114;-68
2023/06/03 16:27:32;;;;;;;3.17;0.53;;;22.20;37.90;;;;;;4809067;29;20051;-67
2023/06/03 16:29:58;;;;;;;2.70;0.57;;;22.00;38.10;;;;;;4793612;29;20118;-67
2023/06/03 16:32:24;;;;;;;2.57;0.40;;;21.90;38.20;;;;;;4793056;29;20134;-67
2023/06/03 16:34:50;;;;;;;2.83;0.77;;;21.80;38.40;;;;;;4803988;29;20125;-68
2023/06/03 16:37:15;;;;;;;7.57;1.33;;;21.80;38.50;;;;;;4808926;29;20030;-68
2023/06/03 16:39:41;;;;;;;6.00;1.83;;;21.60;39.00;;;;;;4814051;29;20140;-69
2023/06/03 16:42:07;;;;;;;15.87;14.53;;;21.60;38.70;;;;;;4809391;29;20739;-68
2023/06/03 16:44:32;;;;;;;14.17;12.73;;;21.60;39.00;;;;;;4816774;29;20052;-68
2023/06/03 16:46:58;;;;;;;13.20;11.37;;;21.60;39.40;;;;;;4811054;29;20042;-68
2023/06/03 16:49:25;;;;;;;2.73;1.73;;;21.70;39.50;;;;;;4808075;29;20407;-68
2023/06/03 16:51:51;;;;;;;2.20;0.90;;;21.80;39.00;;;;;;4817615;29;20042;-68
2023/06/03 16:54:17;;;;;;;1.93;0.67;;;21.80;39.00;;;;;;4812047;29;20052;-68
2023/06/03 16:56:43;;;;;;;4.73;0.60;;;21.80;38.50;;;;;;4789897;29;20054;-68
2023/06/03 16:59:13;;;;;;;4.03;1.10;;;21.70;39.00;;;;;;4804923;29;20121;-69
2023/06/03 17:01:38;;;;;;;1.67;0.40;;;21.90;38.60;;;;;;4809715;29;20959;-68
2023/06/03 17:04:04;;;;;;;6.07;0.57;;;21.90;38.40;;;;;;4807377;29;20080;-69
2023/06/03 17:06:30;;;;;;;2.10;0.50;;;21.90;38.50;;;;;;4811708;29;20079;-69
2023/06/03 17:08:56;;;;;;;1.37;0.53;;;22.00;38.80;;;;;;4791033;29;20042;-69
2023/06/03 17:11:22;;;;;;;1.43;0.50;;;22.00;38.80;;;;;;4810647;29;20030;-68
2023/06/03 17:13:48;;;;;;;1.57;0.40;;;22.20;39.10;;;;;;4805575;29;20078;-69
2023/06/03 17:16:14;;;;;;;2.93;0.73;;;22.30;38.80;;;;;;4812341;29;20077;-69
2023/06/03 17:18:40;;;;;;;3.47;0.50;;;22.30;39.20;;;;;;4822912;29;20057;-69
2023/06/03 17:21:06;;;;;;;67.83;39.80;;;22.30;39.00;;;;;;4806125;29;20050;-68
2023/06/03 17:23:31;;;;;;;445.27;351.77;;;22.40;39.00;;;;;;4812416;29;20042;-69
2023/06/03 17:25:57;;;;;;;20.03;14.90;;;22.40;39.10;;;;;;4792994;29;20507;-69
2023/06/03 17:28:23;;;;;;;3.70;1.67;;;22.40;38.80;;;;;;4816798;29;20542;-69
2023/06/03 17:30:49;;;;;;;15.73;11.47;;;22.50;39.10;;;;;;4803632;29;20086;-69
2023/06/03 17:33:15;;;;;;;25.93;18.53;;;22.60;39.10;;;;;;4806974;29;20089;-69
2023/06/03 17:35:40;;;;;;;3.60;1.57;;;22.50;38.70;;;;;;4790826;29;20070;-69
2023/06/03 17:38:06;;;;;;;2.87;0.73;;;22.40;38.60;;;;;;4794549;29;20088;-69
2023/06/03 17:40:32;;;;;;;4.00;0.60;;;22.30;38.90;;;;;;4796082;29;20038;-69
2023/06/03 17:42:57;;;;;;;4.80;0.40;;;22.20;38.80;;;;;;4790357;29;20057;-69
2023/06/03 17:45:25;;;;;;;3.20;0.70;;;22.30;39.10;;;;;;4803991;29;20764;-68
2023/06/03 17:47:51;;;;;;;0.90;0.53;;;22.30;38.90;;;;;;4803077;29;20571;-69
2023/06/03 17:50:18;;;;;;;4.40;0.60;;;22.30;38.60;;;;;;4804171;29;20775;-70
2023/06/03 17:52:49;;;;;;;3.37;0.57;;;22.30;38.50;;;;;;4804977;29;20127;-69
2023/06/03 17:55:15;;;;;;;3.10;0.60;;;22.30;38.30;;;;;;4794742;29;20114;-69
2023/06/03 17:57:58;;;;;;;3.33;0.40;;;22.30;38.50;;;;;;4811556;29;20491;-69
2023/06/03 18:00:24;;;;;;;4.87;0.60;;;22.30;38.30;;;;;;4809844;29;20639;-69
2023/06/03 18:02:50;;;;;;;2.33;0.80;;;22.20;38.50;;;;;;4804691;29;20061;-70
2023/06/03 18:05:16;;;;;;;2.93;0.70;;;22.10;39.30;;;;;;4796253;29;20129;-70
2023/06/03 18:07:42;;;;;;;2.80;0.47;;;22.30;39.30;;;;;;4810291;29;20034;-70
2023/06/03 18:10:09;;;;;;;2.83;0.50;;;22.30;39.20;;;;;;4809180;29;20207;-70
2023/06/03 18:12:35;;;;;;;1.90;0.30;;;22.30;39.50;;;;;;4795263;29;20046;-70
2023/06/03 18:15:01;;;;;;;2.97;0.40;;;22.40;39.90;;;;;;4818460;29;20060;-71
2023/06/03 18:17:27;;;;;;;3.17;0.50;;;22.40;39.60;;;;;;4810673;29;20080;-71
2023/06/03 18:19:57;;;;;;;2.90;0.40;;;22.20;40.00;;;;;;4804737;29;20046;-70
2023/06/03 18:22:23;;;;;;;0.90;0.30;;;22.20;40.20;;;;;;4814790;29;20060;-70
2023/06/03 18:24:49;;;;;;;3.30;0.63;;;22.10;40.50;;;;;;4811084;29;20076;-70
2023/06/03 18:27:15;;;;;;;3.10;0.47;;;22.00;40.80;;;;;;4815977;29;20089;-71
2023/06/03 18:29:40;;;;;;;1.90;0.60;;;21.90;40.70;;;;;;4802851;29;20073;-70
2023/06/03 18:32:06;;;;;;;1.27;0.50;;;21.90;41.00;;;;;;4818067;29;20053;-71
2023/06/03 18:34:32;;;;;;;2.83;0.60;;;21.90;40.80;;;;;;4815371;29;21064;-70
2023/06/03 18:36:58;;;;;;;5.90;0.50;;;21.70;41.10;;;;;;4818242;29;20061;-70
2023/06/03 18:39:24;;;;;;;3.70;0.83;;;21.10;41.90;;;;;;4807644;29;20030;-70
2023/06/03 18:41:49;;;;;;;2.43;0.70;;;20.50;43.00;;;;;;4799229;29;20366;-70
2023/06/03 18:44:15;;;;;;;1.63;0.67;;;19.90;44.20;;;;;;4814439;29;20053;-70
2023/06/03 18:46:42;;;;;;;4.77;0.70;;;19.40;45.20;;;;;;4810239;29;20050;-71
2023/06/03 18:49:12;;;;;;;2.87;0.40;;;19.00;46.10;;;;;;4814633;29;20109;-71
2023/06/03 18:51:38;;;;;;;1.70;0.60;;;18.70;47.60;;;;;;4800026;29;20045;-70
2023/06/03 18:54:03;;;;;;;2.87;0.80;;;18.30;47.60;;;;;;4798634;29;20229;-69
2023/06/03 18:56:29;;;;;;;1.93;0.70;;;18.00;48.40;;;;;;4823193;29;20129;-70
2023/06/03 18:58:55;;;;;;;2.47;0.60;;;17.70;49.50;;;;;;4814373;29;20132;-70
2023/06/03 19:01:21;;;;;;;1.67;0.60;;;17.40;50.20;;;;;;4816774;29;20053;-70
2023/06/03 19:03:47;;;;;;;3.20;0.50;;;17.10;51.20;;;;;;4797654;29;20050;-71
2023/06/03 19:06:13;;;;;;;2.93;0.70;;;16.90;51.90;;;;;;4829303;29;20061;-70
2023/06/03 19:08:39;;;;;;;4.63;0.67;;;16.70;52.20;;;;;;4820028;29;20307;-70
2023/06/03 19:11:06;;;;;;;2.77;0.60;;;16.60;52.60;;;;;;4829114;29;20455;-71
2023/06/03 19:13:31;;;;;;;6.20;0.60;;;16.40;53.20;;;;;;4811225;29;20302;-70
2023/06/03 19:15:57;;;;;;;4.63;0.50;;;16.30;53.30;;;;;;4814642;29;20287;-70
2023/06/03 19:18:23;;;;;;;2.93;0.70;;;16.20;54.00;;;;;;4805073;29;20396;-70
2023/06/03 19:20:49;;;;;;;2.20;0.53;;;16.10;54.10;;;;;;4822432;29;20049;-70
2023/06/03 19:23:15;;;;;;;2.30;0.50;;;16.00;54.90;;;;;;4803511;29;20522;-70
2023/06/03 19:25:42;;;;;;;1.93;0.57;;;15.80;55.10;;;;;;4795946;29;20334;-70
2023/06/03 19:28:08;;;;;;;3.50;1.10;;;15.70;55.40;;;;;;4831121;29;20775;-70
2023/06/03 19:30:34;;;;;;;1.17;0.50;;;15.60;55.80;;;;;;4818081;29;20295;-70
2023/06/03 19:33:01;;;;;;;3.50;0.70;;;15.50;56.70;;;;;;4813413;29;20291;-70
2023/06/03 19:35:26;;;;;;;2.27;0.87;;;15.40;56.90;;;;;;4814285;29;20050;-69
2023/06/03 19:37:52;;;;;;;2.93;0.70;;;15.20;57.10;;;;;;4797297;29;20340;-70
2023/06/03 19:40:18;;;;;;;5.07;0.73;;;15.10;56.90;;;;;;4811645;29;20038;-70
2023/06/03 19:42:44;;;;;;;3.27;0.70;;;15.00;57.50;;;;;;4810462;29;20049;-69
2023/06/03 19:45:10;;;;;;;3.50;0.63;;;14.90;58.00;;;;;;4809002;29;20818;-70
2023/06/03 19:47:36;;;;;;;2.83;0.77;;;14.80;58.80;;;;;;4793573;29;20291;-71
2023/06/03 19:50:02;;;;;;;4.03;1.07;;;14.60;59.50;;;;;;4795190;29;20760;-69
2023/06/03 19:52:28;;;;;;;4.33;0.80;;;14.50;59.90;;;;;;4812644;29;20076;-70
2023/06/03 19:54:54;;;;;;;3.13;0.70;;;14.40;60.60;;;;;;4815016;29;20330;-71
2023/06/03 19:57:20;;;;;;;3.77;1.00;;;14.30;61.00;;;;;;4807038;29;20057;-69
2023/06/03 19:59:46;;;;;;;2.47;1.00;;;14.20;61.60;;;;;;4794928;29;20046;-70
2023/06/03 20:02:12;;;;;;;5.43;1.67;;;14.10;62.20;;;;;;4803094;29;20692;-69
2023/06/03 20:04:38;;;;;;;2.47;1.00;;;14.00;62.20;;;;;;4814740;29;20296;-70
2023/06/03 20:07:04;;;;;;;1.90;0.83;;;13.90;62.40;;;;;;4810350;29;20057;-69
2023/06/03 20:09:30;;;;;;;5.17;1.40;;;13.80;63.60;;;;;;4811516;29;20177;-70
2023/06/03 20:11:56;;;;;;;4.33;1.03;;;13.70;64.20;;;;;;4809595;29;20342;-69
2023/06/03 20:14:23;;;;;;;4.10;1.53;;;13.70;64.80;;;;;;4805993;29;20984;-67